createdAt,value
2023-02-22T00:01:08.229Z,20.05
2023-02-22T00:02:44.993Z,17.95
2023-02-22T00:04:21.150Z,17.63
2023-02-22T00:05:58.037Z,18.02
2023-02-22T00:07:29.776Z,18.50
2023-02-22T00:09:03.254Z,17.88
2023-02-22T00:10:35.239Z,17.40
2023-02-22T00:12:08.579Z,16.58
2023-02-22T00:13:44.062Z,17.30
2023-02-22T00:15:17.420Z,18.23
2023-02-22T00:16:51.495Z,17.23
2023-02-22T00:18:27.761Z,17.92
2023-02-22T00:20:00.911Z,17.90
2023-02-22T00:21:33.611Z,17.40
2023-02-22T00:23:08.039Z,16.65
2023-02-22T00:24:39.770Z,17.75
2023-02-22T00:26:13.158Z,16.27
2023-02-22T00:27:47.893Z,16.05
2023-02-22T00:29:20.589Z,17.35
2023-02-22T00:30:54.684Z,16.77
2023-02-22T00:32:27.504Z,16.10
2023-02-22T00:34:00.526Z,16.10
2023-02-22T00:35:34.662Z,16.65
2023-02-22T00:37:07.645Z,16.33
2023-02-22T00:38:41.382Z,14.85
2023-02-22T00:40:17.744Z,16.00
2023-02-22T00:41:50.642Z,16.33
2023-02-22T00:43:24.956Z,16.13
2023-02-22T00:44:57.644Z,16.33
2023-02-22T00:46:30.346Z,17.55
2023-02-22T00:48:03.237Z,17.40
2023-02-22T00:49:36.281Z,16.45
2023-02-22T00:51:10.326Z,16.08
2023-02-22T00:52:43.518Z,16.33
2023-02-22T00:54:17.015Z,15.88
2023-02-22T00:55:50.407Z,16.13
2023-02-22T00:57:23.227Z,15.40
2023-02-22T00:58:55.967Z,15.35
2023-02-22T01:00:30.237Z,16.33
2023-02-22T01:02:02.988Z,15.23
2023-02-22T01:03:35.815Z,16.15
2023-02-22T01:05:10.110Z,15.18
2023-02-22T01:06:44.452Z,16.50
2023-02-22T01:08:18.386Z,15.43
2023-02-22T01:09:50.122Z,15.73
2023-02-22T01:11:23.194Z,15.90
2023-02-22T01:12:57.031Z,16.00
2023-02-22T01:14:30.012Z,15.70
2023-02-22T01:16:03.127Z,16.15
2023-02-22T01:17:34.863Z,16.58
2023-02-22T01:19:07.543Z,16.48
2023-02-22T01:20:40.385Z,16.15
2023-02-22T01:22:14.402Z,16.80
2023-02-22T01:23:48.073Z,16.48
2023-02-22T01:25:21.997Z,17.42
2023-02-22T01:26:54.698Z,15.45
2023-02-22T01:28:29.033Z,17.00
2023-02-22T01:30:01.929Z,16.58
2023-02-22T01:31:34.661Z,16.40
2023-02-22T01:33:08.801Z,15.65
2023-02-22T01:34:41.614Z,17.00
2023-02-22T01:36:14.320Z,16.23
2023-02-22T01:37:48.464Z,17.20
2023-02-22T01:39:21.166Z,17.15
2023-02-22T01:40:53.158Z,17.10
2023-02-22T01:42:25.906Z,16.77
2023-02-22T01:43:58.669Z,16.88
2023-02-22T01:45:58.354Z,17.30
2023-02-22T01:47:31.065Z,16.40
2023-02-22T01:49:06.499Z,17.42
2023-02-22T01:50:44.015Z,16.85
2023-02-22T01:52:19.958Z,17.65
2023-02-22T01:53:56.414Z,18.85
2023-02-22T01:55:28.838Z,17.75
2023-02-22T01:57:07.173Z,18.30
2023-02-22T01:58:42.110Z,18.20
2023-02-22T02:00:21.144Z,17.25
2023-02-22T02:01:53.927Z,17.05
2023-02-22T02:03:30.191Z,17.17
2023-02-22T02:05:08.179Z,17.77
2023-02-22T02:06:42.828Z,17.17
2023-02-22T02:08:24.329Z,18.52
2023-02-22T02:10:01.671Z,18.52
2023-02-22T02:11:34.863Z,17.98
2023-02-22T02:13:06.629Z,17.92
2023-02-22T02:14:40.412Z,19.02
2023-02-22T02:16:14.607Z,18.40
2023-02-22T02:17:46.965Z,18.90
2023-02-22T02:19:26.694Z,17.48
2023-02-22T02:21:41.501Z,19.10
2023-02-22T02:23:37.182Z,19.30
2023-02-22T02:25:43.127Z,19.05
2023-02-22T02:27:19.929Z,19.30
2023-02-22T02:29:37.785Z,19.63
2023-02-22T02:31:37.595Z,17.50
2023-02-22T02:33:18.239Z,18.17
2023-02-22T02:34:55.669Z,16.48
2023-02-22T02:36:32.598Z,16.10
2023-02-22T02:38:12.833Z,16.27
2023-02-22T02:39:50.558Z,15.82
2023-02-22T02:41:27.905Z,15.48
2023-02-22T02:43:04.929Z,15.50
2023-02-22T02:44:42.006Z,15.63
2023-02-22T02:46:20.107Z,16.98
2023-02-22T02:47:58.594Z,16.30
2023-02-22T02:49:37.756Z,17.98
2023-02-22T02:51:14.598Z,16.67
2023-02-22T02:52:47.934Z,16.40
2023-02-22T02:54:21.921Z,16.70
2023-02-22T02:55:54.679Z,16.00
2023-02-22T02:57:27.030Z,16.10
2023-02-22T02:58:59.712Z,16.10
2023-02-22T03:00:39.131Z,15.52
2023-02-22T03:02:28.286Z,15.57
2023-02-22T03:04:13.184Z,15.23
2023-02-22T03:06:06.922Z,16.58
2023-02-22T03:07:49.227Z,15.60
2023-02-22T03:09:36.478Z,15.38
2023-02-22T03:11:16.051Z,15.90
2023-02-22T03:12:55.320Z,15.02
2023-02-22T03:14:35.083Z,14.68
2023-02-22T03:16:20.241Z,14.98
2023-02-22T03:17:57.929Z,15.15
2023-02-22T03:19:36.673Z,16.25
2023-02-22T03:21:18.724Z,16.13
2023-02-22T03:22:58.273Z,15.75
2023-02-22T03:24:33.777Z,16.38
2023-02-22T03:26:11.925Z,15.88
2023-02-22T03:27:48.221Z,15.80
2023-02-22T03:29:24.468Z,16.60
2023-02-22T03:30:59.133Z,15.20
2023-02-22T03:32:37.066Z,14.45
2023-02-22T03:34:12.890Z,15.15
2023-02-22T03:35:51.284Z,14.93
2023-02-22T03:37:28.846Z,15.52
2023-02-22T03:39:04.247Z,15.93
2023-02-22T03:40:43.305Z,16.95
2023-02-22T03:42:19.860Z,16.45
2023-02-22T03:43:58.320Z,21.88
2023-02-22T03:45:32.976Z,18.55
2023-02-22T03:47:10.587Z,18.08
2023-02-22T03:48:49.683Z,18.30
2023-02-22T03:50:29.698Z,18.00
2023-02-22T03:52:03.726Z,18.02
2023-02-22T03:53:37.997Z,18.55
2023-02-22T03:55:11.974Z,17.75
2023-02-22T03:56:51.784Z,19.08
2023-02-22T03:58:25.570Z,18.30
2023-02-22T03:59:58.381Z,17.20
2023-02-22T04:01:31.292Z,15.57
2023-02-22T04:03:03.622Z,17.23
2023-02-22T04:04:36.447Z,16.15
2023-02-22T04:06:10.407Z,16.83
2023-02-22T04:07:43.258Z,16.55
2023-02-22T04:09:17.471Z,16.90
2023-02-22T04:10:50.149Z,17.60
2023-02-22T04:12:22.876Z,18.85
2023-02-22T04:13:55.788Z,18.95
2023-02-22T04:15:28.473Z,19.38
2023-02-22T04:17:01.389Z,18.98
2023-02-22T04:18:34.099Z,18.73
2023-02-22T04:20:06.709Z,18.30
2023-02-22T04:21:39.501Z,18.38
2023-02-22T04:23:12.577Z,18.58
2023-02-22T04:24:46.916Z,19.02
2023-02-22T04:26:19.808Z,18.90
2023-02-22T04:27:53.456Z,17.88
2023-02-22T04:29:26.169Z,17.70
2023-02-22T04:30:58.884Z,16.88
2023-02-22T04:32:31.612Z,16.23
2023-02-22T04:34:04.562Z,15.77
2023-02-22T04:35:37.440Z,16.00
2023-02-22T04:37:10.800Z,16.50
2023-02-22T04:38:43.588Z,16.00
2023-02-22T04:40:18.569Z,15.43
2023-02-22T04:41:51.406Z,15.82
2023-02-22T04:43:24.102Z,17.25
2023-02-22T04:44:56.772Z,16.40
2023-02-22T04:46:29.710Z,17.88
2023-02-22T04:48:01.480Z,17.90
2023-02-22T04:49:34.177Z,17.73
2023-02-22T04:51:08.422Z,18.30
2023-02-22T04:52:41.470Z,19.80
2023-02-22T04:54:13.666Z,17.92
2023-02-22T04:55:47.869Z,18.60
2023-02-22T04:57:19.670Z,18.20
2023-02-22T04:58:52.406Z,17.80
2023-02-22T05:00:25.253Z,17.63
2023-02-22T05:01:57.954Z,16.77
2023-02-22T05:03:30.637Z,16.52
2023-02-22T05:05:03.392Z,16.08
2023-02-22T05:06:35.208Z,16.02
2023-02-22T05:08:07.902Z,16.50
2023-02-22T05:09:40.616Z,15.45
2023-02-22T05:11:14.903Z,15.25
2023-02-22T05:12:47.849Z,15.98
2023-02-22T05:14:20.589Z,17.60
2023-02-22T05:15:54.339Z,16.90
2023-02-22T05:17:26.088Z,16.73
2023-02-22T05:18:58.858Z,16.52
2023-02-22T05:20:33.824Z,18.63
2023-02-22T05:22:06.509Z,15.77
2023-02-22T05:23:38.283Z,15.50
2023-02-22T05:25:11.269Z,15.50
2023-02-22T05:26:45.777Z,15.18
2023-02-22T05:28:18.614Z,15.15
2023-02-22T05:29:51.331Z,14.48
2023-02-22T05:31:24.098Z,14.02
2023-02-22T05:32:56.869Z,15.18
2023-02-22T05:34:30.156Z,16.67
2023-02-22T05:36:03.112Z,16.95
2023-02-22T05:37:36.799Z,16.20
2023-02-22T05:39:09.474Z,16.63
2023-02-22T05:40:41.545Z,16.23
2023-02-22T05:42:15.563Z,16.75
2023-02-22T05:43:48.666Z,16.48
2023-02-22T05:45:23.816Z,16.10
2023-02-22T05:46:56.514Z,15.32
2023-02-22T05:48:29.266Z,15.93
2023-02-22T05:50:02.493Z,18.27
2023-02-22T05:51:35.204Z,17.00
2023-02-22T05:53:07.893Z,16.92
2023-02-22T05:54:40.600Z,16.38
2023-02-22T05:56:13.321Z,16.90
2023-02-22T05:57:47.771Z,16.77
2023-02-22T05:59:20.721Z,17.70
2023-02-22T06:00:53.566Z,18.60
2023-02-22T06:02:26.585Z,18.02
2023-02-22T06:03:59.328Z,18.40
2023-02-22T06:05:32.664Z,17.48
2023-02-22T06:07:05.412Z,17.00
2023-02-22T06:08:38.129Z,15.90
2023-02-22T06:10:10.825Z,15.57
2023-02-22T06:11:43.521Z,14.85
2023-02-22T06:13:17.593Z,14.82
2023-02-22T06:14:50.284Z,14.20
2023-02-22T06:16:23.682Z,13.52
2023-02-22T06:17:57.744Z,14.20
2023-02-22T06:19:30.542Z,14.25
2023-02-22T06:21:04.312Z,13.68
2023-02-22T06:22:37.006Z,13.15
2023-02-22T06:24:09.700Z,13.93
2023-02-22T06:25:42.386Z,13.77
2023-02-22T06:27:15.207Z,10.90
2023-02-22T06:28:49.482Z,11.55
2023-02-22T06:30:23.936Z,11.48
2023-02-22T06:31:57.149Z,11.35
2023-02-22T06:33:29.983Z,11.27
2023-02-22T06:35:02.758Z,11.20
2023-02-22T06:36:35.469Z,11.60
2023-02-22T06:38:08.167Z,10.77
2023-02-22T06:39:40.986Z,11.13
2023-02-22T06:41:15.679Z,11.40
2023-02-22T06:42:49.887Z,10.75
2023-02-22T06:44:23.949Z,10.40
2023-02-22T06:45:56.677Z,11.60
2023-02-22T06:47:28.675Z,11.30
2023-02-22T06:49:01.629Z,11.32
2023-02-22T06:50:35.915Z,11.05
2023-02-22T06:52:10.323Z,12.63
2023-02-22T06:53:43.006Z,13.40
2023-02-22T06:55:19.529Z,14.15
2023-02-22T06:56:52.246Z,14.00
2023-02-22T06:58:25.048Z,15.68
2023-02-22T06:59:59.058Z,15.05
2023-02-22T07:01:31.944Z,15.38
2023-02-22T07:03:05.679Z,16.33
2023-02-22T07:04:38.615Z,15.13
2023-02-22T07:06:11.405Z,16.80
2023-02-22T07:07:44.189Z,16.90
2023-02-22T07:09:18.426Z,17.85
2023-02-22T07:10:52.503Z,17.30
2023-02-22T07:12:24.230Z,17.55
2023-02-22T07:13:56.900Z,16.70
2023-02-22T07:15:32.836Z,17.20
2023-02-22T07:17:05.512Z,17.98
2023-02-22T07:18:38.554Z,17.20
2023-02-22T07:20:11.810Z,16.23
2023-02-22T07:21:44.486Z,16.10
2023-02-22T07:23:17.883Z,15.98
2023-02-22T07:24:50.585Z,16.98
2023-02-22T07:26:24.473Z,17.10
2023-02-22T07:27:57.181Z,16.38
2023-02-22T07:29:31.344Z,16.35
2023-02-22T07:31:05.896Z,15.90
2023-02-22T07:32:38.690Z,15.32
2023-02-22T07:34:12.996Z,16.77
2023-02-22T07:35:47.386Z,16.45
2023-02-22T07:37:21.140Z,17.52
2023-02-22T07:38:53.826Z,17.67
2023-02-22T07:40:28.006Z,17.77
2023-02-22T07:42:00.833Z,17.60
2023-02-22T07:43:34.249Z,20.27
2023-02-22T07:45:07.546Z,24.75
2023-02-22T07:46:41.616Z,36.08
2023-02-22T07:48:17.334Z,34.17
2023-02-22T07:49:50.308Z,27.23
2023-02-22T07:51:23.097Z,26.52
2023-02-22T07:52:58.214Z,25.90
2023-02-22T07:54:30.946Z,26.60
2023-02-22T07:56:05.599Z,24.63
2023-02-22T07:57:38.261Z,24.38
2023-02-22T07:59:10.946Z,30.55
2023-02-22T08:00:44.905Z,31.10
2023-02-22T08:02:19.172Z,26.25
2023-02-22T08:03:52.574Z,24.48
2023-02-22T08:05:26.732Z,24.60
2023-02-22T08:06:59.422Z,24.60
2023-02-22T08:08:32.167Z,26.13
2023-02-22T08:10:06.584Z,26.30
2023-02-22T08:11:39.285Z,25.67
2023-02-22T08:13:12.543Z,24.80
2023-02-22T08:14:45.365Z,24.55
2023-02-22T08:16:18.065Z,22.85
2023-02-22T08:17:53.295Z,22.70
2023-02-22T08:19:25.987Z,21.92
2023-02-22T08:20:58.871Z,31.05
2023-02-22T08:22:31.552Z,25.85
2023-02-22T08:24:04.496Z,21.27
2023-02-22T08:25:37.475Z,20.38
2023-02-22T08:27:10.194Z,20.15
2023-02-22T08:28:43.121Z,20.17
2023-02-22T08:30:18.257Z,19.65
2023-02-22T08:31:54.711Z,20.55
2023-02-22T08:33:28.788Z,21.45
2023-02-22T08:35:01.267Z,21.15
2023-02-22T08:36:34.364Z,21.48
2023-02-22T08:38:08.233Z,20.00
2023-02-22T08:39:40.945Z,21.30
2023-02-22T08:41:13.687Z,20.75
2023-02-22T08:42:46.890Z,21.52
2023-02-22T08:44:19.591Z,20.75
2023-02-22T08:45:54.439Z,19.45
2023-02-22T08:47:28.225Z,20.65
2023-02-22T08:49:02.992Z,20.23
2023-02-22T08:50:36.452Z,21.60
2023-02-22T08:52:09.493Z,20.15
2023-02-22T08:53:42.211Z,20.45
2023-02-22T08:55:14.929Z,19.75
2023-02-22T08:56:47.661Z,20.40
2023-02-22T08:58:20.355Z,20.10
2023-02-22T08:59:53.600Z,21.17
2023-02-22T09:01:32.903Z,22.30
2023-02-22T09:03:08.340Z,21.15
2023-02-22T09:04:42.497Z,21.52
2023-02-22T09:06:15.257Z,22.48
2023-02-22T09:07:48.375Z,22.55
2023-02-22T09:09:21.690Z,23.13
2023-02-22T09:10:54.679Z,30.88
2023-02-22T09:12:27.416Z,35.63
2023-02-22T09:14:00.155Z,28.65
2023-02-22T09:15:35.798Z,24.52
2023-02-22T09:17:08.571Z,24.92
2023-02-22T09:18:44.202Z,24.90
2023-02-22T09:20:20.183Z,24.95
2023-02-22T09:21:56.673Z,24.15
2023-02-22T09:23:29.767Z,23.27
2023-02-22T09:25:11.245Z,22.92
2023-02-22T09:26:53.301Z,22.92
2023-02-22T09:28:27.312Z,23.55
2023-02-22T09:30:00.985Z,24.15
2023-02-22T09:31:36.499Z,24.13
2023-02-22T09:33:11.628Z,24.55
2023-02-22T09:34:45.759Z,23.40
2023-02-22T09:36:21.658Z,23.70
2023-02-22T09:37:56.271Z,24.33
2023-02-22T09:39:29.164Z,23.08
2023-02-22T09:41:12.167Z,24.25
2023-02-22T09:42:56.409Z,23.17
2023-02-22T09:44:37.000Z,23.38
2023-02-22T09:46:20.237Z,22.10
2023-02-22T09:48:01.322Z,19.42
2023-02-22T09:49:47.217Z,21.92
2023-02-22T09:51:23.070Z,22.38
2023-02-22T09:53:04.118Z,21.90
2023-02-22T09:54:43.201Z,22.45
2023-02-22T09:56:18.482Z,24.15
2023-02-22T09:57:55.294Z,23.27
2023-02-22T09:59:31.207Z,22.27
2023-02-22T10:01:22.830Z,22.38
2023-02-22T10:03:06.825Z,21.63
2023-02-22T10:04:44.270Z,21.13
2023-02-22T10:06:21.494Z,20.95
2023-02-22T10:07:59.983Z,21.85
2023-02-22T10:09:34.572Z,22.10
2023-02-22T10:11:19.548Z,22.02
2023-02-22T10:13:01.973Z,21.98
2023-02-22T10:14:47.386Z,20.90
2023-02-22T10:16:30.621Z,22.52
2023-02-22T10:18:22.190Z,21.70
2023-02-22T10:20:06.036Z,20.55
2023-02-22T10:21:57.704Z,21.60
2023-02-22T10:23:37.639Z,21.70
2023-02-22T10:25:13.701Z,20.05
2023-02-22T10:26:47.059Z,20.00
2023-02-22T10:28:24.177Z,20.30
2023-02-22T10:30:15.499Z,21.63
2023-02-22T10:32:00.371Z,21.77
2023-02-22T10:33:37.702Z,22.07
2023-02-22T10:35:21.651Z,23.07
2023-02-22T10:36:59.686Z,22.53
2023-02-22T10:38:35.121Z,23.10
2023-02-22T10:40:17.214Z,22.00
2023-02-22T10:41:52.511Z,23.13
2023-02-22T10:43:25.872Z,22.87
2023-02-22T10:44:58.575Z,21.77
2023-02-22T10:46:34.027Z,22.73
2023-02-22T10:48:11.420Z,23.53
2023-02-22T10:49:47.848Z,22.63
2023-02-22T10:51:21.059Z,23.50
2023-02-22T10:52:55.091Z,23.13
2023-02-22T10:54:33.177Z,23.93
2023-02-22T10:56:08.185Z,22.87
2023-02-22T10:57:43.873Z,22.30
2023-02-22T10:59:28.847Z,22.87
2023-02-22T11:01:01.558Z,22.87
2023-02-22T11:02:36.529Z,23.67
2023-02-22T11:04:13.786Z,23.73
2023-02-22T11:05:47.076Z,23.23
2023-02-22T11:07:27.140Z,23.93
2023-02-22T11:09:11.492Z,23.63
2023-02-22T11:10:45.515Z,23.43
2023-02-22T11:12:21.287Z,23.93
2023-02-22T11:13:56.307Z,23.47
2023-02-22T11:15:29.868Z,24.67
2023-02-22T11:17:08.393Z,24.43
2023-02-22T11:18:41.129Z,24.30
2023-02-22T11:20:25.175Z,24.50
2023-02-22T11:22:01.789Z,23.93
2023-02-22T11:23:35.725Z,23.77
2023-02-22T11:25:09.277Z,24.57
2023-02-22T11:26:46.698Z,24.80
2023-02-22T11:28:30.815Z,24.13
2023-02-22T11:30:28.909Z,23.73
2023-02-22T11:32:05.259Z,23.40
2023-02-22T11:33:39.487Z,23.47
2023-02-22T11:35:35.459Z,22.47
2023-02-22T11:37:22.156Z,22.67
2023-02-22T11:38:59.334Z,22.37
2023-02-22T11:40:33.924Z,22.13
2023-02-22T11:42:23.356Z,21.77
2023-02-22T11:44:12.378Z,22.27
2023-02-22T11:46:02.375Z,21.43
2023-02-22T11:47:35.799Z,21.13
2023-02-22T11:49:11.587Z,21.60
2023-02-22T11:50:59.924Z,20.00
2023-02-22T11:52:38.662Z,20.93
2023-02-22T11:54:31.580Z,21.60
2023-02-22T11:56:22.757Z,20.80
2023-02-22T11:58:14.387Z,22.77
2023-02-22T12:00:00.722Z,21.37
2023-02-22T12:01:43.788Z,22.50
2023-02-22T12:03:34.438Z,21.60
2023-02-22T12:05:28.715Z,20.70
2023-02-22T12:07:29.945Z,21.17
2023-02-22T12:09:14.302Z,20.47
2023-02-22T12:10:56.171Z,21.60
2023-02-22T12:12:40.277Z,20.40
2023-02-22T12:14:22.556Z,20.57
2023-02-22T12:16:03.384Z,21.23
2023-02-22T12:18:05.798Z,20.87
2023-02-22T12:19:43.167Z,21.87
2023-02-22T12:21:19.300Z,22.20
2023-02-22T12:23:03.641Z,20.97
2023-02-22T12:24:39.355Z,20.27
2023-02-22T12:26:17.159Z,20.77
2023-02-22T12:27:53.966Z,21.00
2023-02-22T12:29:37.533Z,20.77
2023-02-22T12:31:20.954Z,20.40
2023-02-22T12:32:56.154Z,20.07
2023-02-22T12:34:35.868Z,21.17
2023-02-22T12:36:15.001Z,21.10
2023-02-22T12:37:58.362Z,20.93
2023-02-22T12:39:53.551Z,23.10
2023-02-22T12:41:31.158Z,24.10
2023-02-22T12:43:10.334Z,23.33
2023-02-22T12:44:49.503Z,21.87
2023-02-22T12:46:27.151Z,22.97
2023-02-22T12:48:18.299Z,23.43
2023-02-22T12:49:59.074Z,23.13
2023-02-22T12:51:41.147Z,22.77
2023-02-22T12:53:20.003Z,23.37
2023-02-22T12:55:00.565Z,24.03
2023-02-22T12:56:37.461Z,23.03
2023-02-22T12:58:21.623Z,23.00
2023-02-22T13:00:00.287Z,23.17
2023-02-22T13:01:38.873Z,23.03
2023-02-22T13:03:28.260Z,23.37
2023-02-22T13:05:02.122Z,21.80
2023-02-22T13:06:57.682Z,22.80
2023-02-22T13:08:36.559Z,21.70
2023-02-22T13:10:26.171Z,22.30
2023-02-22T13:12:07.120Z,23.47
2023-02-22T13:13:55.091Z,22.43
2023-02-22T13:15:33.787Z,22.73
2023-02-22T13:17:13.379Z,22.60
2023-02-22T13:18:51.478Z,22.07
2023-02-22T13:20:29.668Z,22.10
2023-02-22T13:22:08.323Z,22.30
2023-02-22T13:23:48.744Z,20.17
2023-02-22T13:25:28.158Z,21.27
2023-02-22T13:27:03.882Z,22.30
2023-02-22T13:28:44.785Z,21.93
2023-02-22T13:30:27.969Z,22.27
2023-02-22T13:32:21.034Z,22.53
2023-02-22T13:34:18.234Z,21.90
2023-02-22T13:36:19.906Z,22.20
2023-02-22T13:38:30.694Z,23.33
2023-02-22T13:40:22.137Z,22.60
2023-02-22T13:42:23.571Z,22.40
2023-02-22T13:44:26.064Z,22.57
2023-02-22T13:46:20.890Z,22.70
2023-02-22T13:48:39.902Z,22.97
2023-02-22T13:50:44.324Z,22.23
2023-02-22T13:52:20.299Z,22.80
2023-02-22T13:53:56.770Z,22.53
2023-02-22T13:55:34.377Z,22.63
2023-02-22T13:57:19.908Z,22.80
2023-02-22T13:58:54.756Z,23.77
2023-02-22T14:00:44.299Z,24.33
2023-02-22T14:03:00.863Z,22.30
2023-02-22T14:04:42.853Z,23.27
2023-02-22T14:06:37.586Z,23.73
2023-02-22T14:08:45.780Z,24.53
2023-02-22T14:10:39.667Z,23.23
2023-02-22T14:12:48.534Z,22.60
2023-02-22T14:14:22.108Z,22.63
2023-02-22T14:16:21.622Z,22.63
2023-02-22T14:17:59.642Z,22.27
2023-02-22T14:19:32.408Z,23.60
2023-02-22T14:21:11.016Z,24.17
2023-02-22T14:22:46.938Z,24.10
2023-02-22T14:24:20.691Z,23.00
2023-02-22T14:25:53.937Z,22.57
2023-02-22T14:27:39.527Z,23.43
2023-02-22T14:29:21.164Z,24.13
2023-02-22T14:31:07.321Z,22.90
2023-02-22T14:32:40.270Z,23.30
2023-02-22T14:34:14.733Z,23.83
2023-02-22T14:35:50.135Z,23.33
2023-02-22T14:37:27.851Z,22.97
2023-02-22T14:39:08.602Z,23.67
2023-02-22T14:40:43.546Z,24.27
2023-02-22T14:42:20.204Z,23.40
2023-02-22T14:43:55.506Z,23.23
2023-02-22T14:45:33.231Z,24.23
2023-02-22T14:47:08.648Z,23.03
2023-02-22T14:48:43.283Z,24.17
2023-02-22T14:50:23.078Z,22.17
2023-02-22T14:51:59.174Z,29.93
2023-02-22T14:53:39.161Z,26.23
2023-02-22T14:55:21.226Z,23.47
2023-02-22T14:57:11.984Z,22.77
2023-02-22T14:58:49.447Z,23.23
2023-02-22T15:00:30.972Z,23.13
2023-02-22T15:02:11.669Z,23.53
2023-02-22T15:03:45.497Z,23.53
2023-02-22T15:05:20.775Z,24.27
2023-02-22T15:06:54.721Z,23.17
2023-02-22T15:08:28.466Z,23.43
2023-02-22T15:10:23.877Z,23.13
2023-02-22T15:12:12.914Z,23.40
2023-02-22T15:13:51.438Z,22.23
2023-02-22T15:15:24.682Z,21.97
2023-02-22T15:17:00.359Z,23.40
2023-02-22T15:18:38.118Z,23.33
2023-02-22T15:20:15.774Z,24.20
2023-02-22T15:21:49.950Z,23.50
2023-02-22T15:23:24.516Z,24.50
2023-02-22T15:25:01.095Z,24.77
2023-02-22T15:26:37.410Z,24.07
2023-02-22T15:28:15.128Z,24.87
2023-02-22T15:29:47.822Z,24.70
2023-02-22T15:31:31.391Z,25.03
2023-02-22T15:33:24.072Z,25.03
2023-02-22T15:35:06.412Z,24.30
2023-02-22T15:36:39.538Z,24.30
2023-02-22T15:38:28.368Z,23.80
2023-02-22T15:40:14.325Z,24.23
2023-02-22T15:41:48.389Z,23.30
2023-02-22T15:43:24.357Z,24.83
2023-02-22T15:44:58.036Z,24.50
2023-02-22T15:46:31.671Z,25.00
2023-02-22T15:48:05.026Z,24.13
2023-02-22T15:49:37.913Z,24.20
2023-02-22T15:51:13.959Z,24.13
2023-02-22T15:52:53.873Z,23.90
2023-02-22T15:54:28.044Z,23.30
2023-02-22T15:56:03.705Z,24.30
2023-02-22T15:57:37.750Z,24.23
2023-02-22T15:59:14.297Z,23.73
2023-02-22T16:00:50.143Z,24.70
2023-02-22T16:02:36.868Z,24.87
2023-02-22T16:04:17.948Z,25.20
2023-02-22T16:05:55.491Z,24.07
2023-02-22T16:07:28.460Z,24.80
2023-02-22T16:09:07.743Z,25.13
2023-02-22T16:10:54.172Z,22.80
2023-02-22T16:12:29.213Z,23.63
2023-02-22T16:14:05.577Z,25.40
2023-02-22T16:15:38.441Z,25.47
2023-02-22T16:17:31.614Z,24.23
2023-02-22T16:19:28.738Z,23.73
2023-02-22T16:21:03.821Z,23.47
2023-02-22T16:22:38.935Z,22.53
2023-02-22T16:24:27.207Z,24.10
2023-02-22T16:26:18.661Z,24.30
2023-02-22T16:27:55.765Z,24.83
2023-02-22T16:29:29.886Z,25.23
2023-02-22T16:31:04.029Z,22.97
2023-02-22T16:32:36.901Z,24.97
2023-02-22T16:34:10.857Z,25.23
2023-02-22T16:35:52.036Z,24.23
2023-02-22T16:37:25.096Z,23.97
2023-02-22T16:38:57.806Z,24.73
2023-02-22T16:40:34.608Z,24.43
2023-02-22T16:42:09.791Z,25.43
2023-02-22T16:43:46.110Z,25.27
2023-02-22T16:45:21.849Z,25.77
2023-02-22T16:46:55.593Z,28.50
2023-02-22T16:48:30.425Z,25.73
2023-02-22T16:50:03.470Z,24.87
2023-02-22T16:51:42.346Z,26.03
2023-02-22T16:53:19.858Z,24.50
2023-02-22T16:54:52.886Z,25.57
2023-02-22T16:56:31.017Z,25.83
2023-02-22T16:58:04.965Z,25.10
2023-02-22T16:59:40.043Z,26.47
2023-02-22T17:01:14.332Z,26.13
2023-02-22T17:02:47.068Z,24.90
2023-02-22T17:04:22.116Z,25.47
2023-02-22T17:05:55.102Z,26.47
2023-02-22T17:07:30.690Z,24.63
2023-02-22T17:09:03.394Z,26.67
2023-02-22T17:10:36.430Z,25.47
2023-02-22T17:12:09.685Z,26.63
2023-02-22T17:13:42.626Z,28.00
2023-02-22T17:15:22.111Z,30.83
2023-02-22T17:16:59.377Z,32.33
2023-02-22T17:18:34.003Z,39.17
2023-02-22T17:20:11.433Z,40.03
2023-02-22T17:21:44.237Z,37.97
2023-02-22T17:23:17.617Z,38.30
2023-02-22T17:24:50.322Z,36.33
2023-02-22T17:26:23.411Z,34.80
2023-02-22T17:27:56.106Z,34.53
2023-02-22T17:29:29.415Z,33.17
2023-02-22T17:31:02.486Z,32.50
2023-02-22T17:32:36.690Z,31.17
2023-02-22T17:34:09.549Z,28.77
2023-02-22T17:35:42.258Z,27.90
2023-02-22T17:37:14.945Z,28.67
2023-02-22T17:38:47.641Z,28.37
2023-02-22T17:40:20.370Z,28.47
2023-02-22T17:41:57.499Z,26.93
2023-02-22T17:43:30.313Z,26.97
2023-02-22T17:45:03.077Z,27.23
2023-02-22T17:46:36.522Z,28.00
2023-02-22T17:48:10.669Z,26.23
2023-02-22T17:49:44.113Z,27.87
2023-02-22T17:51:17.294Z,27.90
2023-02-22T17:52:51.835Z,26.97
2023-02-22T17:54:26.853Z,27.17
2023-02-22T17:55:59.549Z,27.70
2023-02-22T17:57:32.238Z,27.00
2023-02-22T17:59:08.001Z,28.47
2023-02-22T18:00:42.625Z,27.60
2023-02-22T18:02:15.365Z,29.07
2023-02-22T18:03:49.599Z,28.77
2023-02-22T18:05:22.436Z,27.87
2023-02-22T18:06:55.126Z,28.60
2023-02-22T18:08:31.045Z,28.50
2023-02-22T18:10:05.169Z,27.57
2023-02-22T18:11:39.433Z,27.33
2023-02-22T18:13:16.556Z,37.50
2023-02-22T18:14:49.409Z,38.60
2023-02-22T18:16:22.207Z,28.57
2023-02-22T18:17:55.789Z,27.97
2023-02-22T18:19:29.819Z,27.87
2023-02-22T18:21:02.540Z,28.70
2023-02-22T18:22:35.230Z,27.70
2023-02-22T18:24:08.339Z,26.97
2023-02-22T18:25:42.253Z,28.87
2023-02-22T18:27:15.052Z,28.80
2023-02-22T18:28:49.027Z,27.93
2023-02-22T18:30:21.959Z,29.17
2023-02-22T18:31:54.770Z,27.33
2023-02-22T18:33:27.705Z,25.87
2023-02-22T18:35:02.411Z,26.20
2023-02-22T18:36:35.143Z,24.37
2023-02-22T18:38:09.268Z,25.47
2023-02-22T18:39:43.129Z,28.33
2023-02-22T18:41:17.847Z,29.87
2023-02-22T18:42:50.873Z,34.40
2023-02-22T18:44:23.555Z,45.80
2023-02-22T18:46:05.136Z,50.87
2023-02-22T18:47:42.965Z,51.80
2023-02-22T18:49:15.707Z,44.63
2023-02-22T18:50:49.718Z,35.27
2023-02-22T18:52:22.417Z,31.97
2023-02-22T18:54:00.178Z,31.80
2023-02-22T18:55:37.099Z,35.20
2023-02-22T18:57:12.272Z,39.90
2023-02-22T18:58:45.028Z,38.70
2023-02-22T19:00:23.092Z,41.13
2023-02-22T19:01:55.803Z,41.57
2023-02-22T19:03:28.958Z,41.30
2023-02-22T19:05:02.508Z,38.23
2023-02-22T19:06:36.596Z,37.10
2023-02-22T19:08:11.205Z,33.13
2023-02-22T19:09:43.999Z,32.73
2023-02-22T19:11:19.187Z,32.10
2023-02-22T19:12:51.881Z,29.33
2023-02-22T19:14:24.561Z,27.37
2023-02-22T19:15:56.367Z,28.60
2023-02-22T19:17:31.053Z,28.67
2023-02-22T19:19:03.876Z,28.60
2023-02-22T19:20:36.710Z,28.13
2023-02-22T19:22:14.915Z,28.02
2023-02-22T19:23:48.263Z,27.60
2023-02-22T19:25:21.229Z,27.07
2023-02-22T19:26:57.366Z,28.25
2023-02-22T19:28:33.881Z,27.13
2023-02-22T19:30:08.105Z,27.50
2023-02-22T19:31:41.937Z,29.23
2023-02-22T19:33:14.722Z,28.77
2023-02-22T19:34:47.786Z,29.23
2023-02-22T19:36:22.859Z,31.03
2023-02-22T19:37:58.120Z,30.37
2023-02-22T19:39:30.871Z,30.17
2023-02-22T19:41:10.191Z,31.52
2023-02-22T19:42:43.143Z,32.63
2023-02-22T19:44:15.848Z,40.65
2023-02-22T19:45:48.611Z,53.05
2023-02-22T19:47:22.496Z,47.60
2023-02-22T19:48:56.172Z,36.58
2023-02-22T19:50:28.934Z,39.20
2023-02-22T19:52:03.719Z,30.80
2023-02-22T19:53:39.391Z,31.50
2023-02-22T19:55:13.326Z,30.63
2023-02-22T19:56:50.751Z,30.73
2023-02-22T19:58:23.450Z,31.40
2023-02-22T19:59:56.160Z,29.13
2023-02-22T20:01:32.850Z,29.03
2023-02-22T20:03:06.584Z,30.10
2023-02-22T20:04:39.355Z,28.92
2023-02-22T20:06:12.325Z,30.15
2023-02-22T20:07:45.028Z,28.17
2023-02-22T20:09:21.329Z,28.40
2023-02-22T20:10:58.567Z,27.88
2023-02-22T20:12:31.986Z,26.47
2023-02-22T20:14:06.643Z,27.10
2023-02-22T20:15:39.755Z,27.70
2023-02-22T20:17:12.845Z,26.15
2023-02-22T20:18:46.681Z,25.27
2023-02-22T20:20:19.601Z,26.23
2023-02-22T20:21:53.006Z,25.92
2023-02-22T20:23:25.724Z,25.13
2023-02-22T20:24:59.810Z,27.98
2023-02-22T20:26:34.366Z,28.50
2023-02-22T20:28:07.846Z,26.73
2023-02-22T20:29:40.885Z,28.03
2023-02-22T20:31:15.818Z,27.03
2023-02-22T20:32:48.933Z,28.00
2023-02-22T20:34:21.774Z,26.20
2023-02-22T20:35:54.503Z,28.30
2023-02-22T20:37:27.251Z,27.83
2023-02-22T20:39:00.968Z,28.02
2023-02-22T20:40:35.005Z,29.30
2023-02-22T20:42:08.605Z,29.50
2023-02-22T20:43:41.335Z,27.67
2023-02-22T20:45:16.108Z,28.13
2023-02-22T20:46:49.353Z,28.38